createdAt,value
2022-08-08T00:02:03.749Z,101472.38
2022-08-08T00:04:56.442Z,101474.94
2022-08-08T00:07:33.715Z,101482.84
2022-08-08T00:10:12.302Z,101475.56
2022-08-08T00:12:56.598Z,101468.63
2022-08-08T00:15:57.707Z,101477.22
2022-08-08T00:18:28.582Z,101471.31
2022-08-08T00:21:01.231Z,101470.97
2022-08-08T00:23:47.615Z,101465.03
2022-08-08T00:26:26.148Z,101467.75
2022-08-08T00:29:03.178Z,101471.63
2022-08-08T00:32:20.711Z,101470.19
2022-08-08T00:34:57.844Z,101471.94
2022-08-08T00:37:47.147Z,101472.25
2022-08-08T00:41:11.393Z,101466.50
2022-08-08T00:43:59.198Z,101469.50
2022-08-08T00:46:58.919Z,101475.06
2022-08-08T00:49:59.016Z,101486.78
2022-08-08T00:52:53.993Z,101489.22
2022-08-08T00:55:59.213Z,101492.09
2022-08-08T00:59:00.690Z,101490.50
2022-08-08T01:02:06.647Z,101495.69
2022-08-08T01:05:58.671Z,101484.38
2022-08-08T01:09:36.470Z,101484.72
2022-08-08T01:12:19.977Z,101487.56
2022-08-08T01:15:54.141Z,101488.91
2022-08-08T01:18:57.754Z,101484.34
2022-08-08T01:22:15.615Z,101489.00
2022-08-08T01:24:59.775Z,101484.88
2022-08-08T01:27:44.508Z,101474.09
2022-08-08T01:30:53.715Z,101470.59
2022-08-08T01:34:01.539Z,101473.84
2022-08-08T01:37:21.833Z,101475.56
2022-08-08T01:40:17.708Z,101473.78
2022-08-08T01:43:25.257Z,101476.13
2022-08-08T01:46:38.547Z,101477.22
2022-08-08T01:49:23.437Z,101472.59
2022-08-08T01:53:28.895Z,101468.41
2022-08-08T01:56:26.608Z,101470.31
2022-08-08T01:58:39.827Z,101473.81
2022-08-08T02:02:04.917Z,101475.66
2022-08-08T02:04:45.135Z,101472.41
2022-08-08T02:07:41.503Z,101476.81
2022-08-08T02:10:29.915Z,101489.34
2022-08-08T02:13:54.379Z,101485.88
2022-08-08T02:16:12.219Z,101486.41
2022-08-08T02:18:59.510Z,101490.09
2022-08-08T02:21:53.771Z,101489.53
2022-08-08T02:24:26.167Z,101492.41
2022-08-08T02:27:01.389Z,101495.81
2022-08-08T02:29:52.723Z,101493.81
2022-08-08T02:32:34.074Z,101492.03
2022-08-08T02:35:18.304Z,101484.66
2022-08-08T02:38:30.051Z,101484.34
2022-08-08T02:42:04.206Z,101491.88
2022-08-08T02:44:43.121Z,101491.63
2022-08-08T02:48:07.820Z,101485.44
2022-08-08T02:51:11.953Z,101490.56
2022-08-08T02:54:15.603Z,101489.31
2022-08-08T02:57:12.337Z,101487.31
2022-08-08T03:00:31.792Z,101490.25
2022-08-08T03:03:15.988Z,101487.84
2022-08-08T03:06:30.628Z,101486.97
2022-08-08T03:09:54.745Z,101487.72
2022-08-08T03:13:01.712Z,101490.97
2022-08-08T03:16:07.265Z,101487.66
2022-08-08T03:18:54.672Z,101491.34
2022-08-08T03:21:26.760Z,101488.56
2022-08-08T03:24:07.176Z,101492.50
2022-08-08T03:26:44.413Z,101496.19
2022-08-08T03:29:26.963Z,101495.66
2022-08-08T03:32:29.191Z,101497.72
2022-08-08T03:34:57.846Z,101500.19
2022-08-08T03:37:59.675Z,101499.09
2022-08-08T03:40:30.431Z,101494.88
2022-08-08T03:43:16.518Z,101497.03
2022-08-08T03:46:04.883Z,101497.03
2022-08-08T03:49:54.905Z,101502.31
2022-08-08T03:51:50.697Z,101511.97
2022-08-08T03:54:41.138Z,101512.75
2022-08-08T03:58:30.934Z,101511.22
2022-08-08T04:00:07.662Z,101512.00
2022-08-08T04:02:47.536Z,101503.69
2022-08-08T04:05:27.458Z,101508.09
2022-08-08T04:07:58.386Z,101513.16
2022-08-08T04:10:31.689Z,101511.88
2022-08-08T04:13:08.227Z,101507.34
2022-08-08T04:15:55.149Z,101513.47
2022-08-08T04:18:39.367Z,101515.53
2022-08-08T04:21:11.601Z,101507.72
2022-08-08T04:24:05.704Z,101514.66
2022-08-08T04:26:35.591Z,101523.16
2022-08-08T04:29:15.278Z,101529.72
2022-08-08T04:31:58.771Z,101528.88
2022-08-08T04:34:32.194Z,101527.75
2022-08-08T04:37:11.437Z,101519.81
2022-08-08T04:40:04.670Z,101522.09
2022-08-08T04:42:27.246Z,101528.19
2022-08-08T04:44:55.640Z,101527.44
2022-08-08T04:47:24.315Z,101529.59
2022-08-08T04:50:01.289Z,101534.41
2022-08-08T04:52:35.354Z,101534.06
2022-08-08T04:55:06.698Z,101533.41
2022-08-08T04:57:34.740Z,101535.22
2022-08-08T05:00:04.887Z,101533.22
2022-08-08T05:02:31.945Z,101539.56
2022-08-08T05:05:00.179Z,101539.31
2022-08-08T05:07:35.315Z,101546.94
2022-08-08T05:10:11.228Z,101549.97
2022-08-08T05:12:59.799Z,101551.97
2022-08-08T05:16:48.116Z,101550.81
2022-08-08T05:18:15.261Z,101557.91
2022-08-08T05:20:50.126Z,101552.53
2022-08-08T05:23:19.766Z,101559.75
2022-08-08T05:25:49.553Z,101563.91
2022-08-08T05:28:48.410Z,101571.66
2022-08-08T05:31:19.510Z,101568.97
2022-08-08T05:33:52.551Z,101587.09
2022-08-08T05:36:28.045Z,101582.56
2022-08-08T05:38:58.529Z,101589.75
2022-08-08T05:41:26.232Z,101591.56
2022-08-08T05:44:31.258Z,101590.16
2022-08-08T05:47:02.962Z,101589.66
2022-08-08T05:49:31.139Z,101599.63
2022-08-08T05:51:58.062Z,101599.09
2022-08-08T05:54:43.274Z,101614.69
2022-08-08T05:57:16.438Z,101601.72
2022-08-08T06:00:23.669Z,101609.44
2022-08-08T06:03:17.370Z,101605.81
2022-08-08T06:06:01.188Z,101606.94
2022-08-08T06:08:53.218Z,101603.34
2022-08-08T06:11:22.375Z,101601.41
2022-08-08T06:13:54.968Z,101601.56
2022-08-08T06:16:27.390Z,101612.78
2022-08-08T06:19:35.233Z,101608.34
2022-08-08T06:22:32.040Z,101616.84
2022-08-08T06:24:53.443Z,101622.88
2022-08-08T06:27:38.707Z,101623.91
2022-08-08T06:30:11.956Z,101620.50
2022-08-08T06:32:53.350Z,101619.16
2022-08-08T06:36:04.160Z,101608.28
2022-08-08T06:38:14.489Z,101609.75
2022-08-08T06:40:48.742Z,101617.63
2022-08-08T06:43:33.691Z,101617.41
2022-08-08T06:46:09.059Z,101625.25
2022-08-08T06:48:36.622Z,101625.00
2022-08-08T06:51:07.824Z,101631.56
2022-08-08T06:53:39.476Z,101620.81
2022-08-08T06:56:18.169Z,101627.69
2022-08-08T06:58:50.257Z,101626.66
2022-08-08T07:02:18.271Z,101640.69
2022-08-08T07:04:45.390Z,101640.25
2022-08-08T07:07:32.870Z,101637.75
2022-08-08T07:10:08.364Z,101634.69
2022-08-08T07:12:48.362Z,101636.34
2022-08-08T07:16:06.229Z,101647.34
2022-08-08T07:18:49.838Z,101644.75
2022-08-08T07:21:22.354Z,101655.34
2022-08-08T07:24:05.658Z,101647.16
2022-08-08T07:26:46.878Z,101645.78
2022-08-08T07:30:00.273Z,101645.50
2022-08-08T07:32:15.670Z,101656.81
2022-08-08T07:35:00.058Z,101657.84
2022-08-08T07:37:55.995Z,101663.81
2022-08-08T07:40:29.521Z,101656.19
2022-08-08T07:43:00.942Z,101659.22
2022-08-08T07:45:34.404Z,101657.28
2022-08-08T07:48:14.971Z,101662.78
2022-08-08T07:50:44.207Z,101655.41
2022-08-08T07:54:01.870Z,101650.66
2022-08-08T07:56:37.324Z,101652.72
2022-08-08T07:59:14.898Z,101658.56
2022-08-08T08:02:36.219Z,101649.66
2022-08-08T08:04:49.095Z,101662.44
2022-08-08T08:07:26.112Z,101651.13
2022-08-08T08:10:03.727Z,101659.63
2022-08-08T08:12:41.373Z,101667.38
2022-08-08T08:15:12.145Z,101660.59
2022-08-08T08:17:49.120Z,101659.63
2022-08-08T08:20:29.852Z,101659.13
2022-08-08T08:23:01.035Z,101666.00
2022-08-08T08:25:42.752Z,101668.47
2022-08-08T08:28:21.531Z,101661.63
2022-08-08T08:30:53.913Z,101654.63
2022-08-08T08:33:23.417Z,101662.72
2022-08-08T08:36:20.454Z,101660.22
2022-08-08T08:38:49.595Z,101667.09
2022-08-08T08:41:22.204Z,101656.31
2022-08-08T08:43:52.129Z,101654.13
2022-08-08T08:46:20.067Z,101647.69
2022-08-08T08:48:55.721Z,101656.22
2022-08-08T08:51:26.882Z,101654.03
2022-08-08T08:54:02.037Z,101657.44
2022-08-08T08:56:36.525Z,101652.41
2022-08-08T08:59:15.379Z,101656.31
2022-08-08T09:01:51.872Z,101653.69
2022-08-08T09:04:38.790Z,101665.84
2022-08-08T09:07:22.553Z,101662.53
2022-08-08T09:09:57.110Z,101660.41
2022-08-08T09:12:28.613Z,101663.22
2022-08-08T09:14:58.296Z,101663.16
2022-08-08T09:17:40.718Z,101667.00
2022-08-08T09:22:01.638Z,101661.75
2022-08-08T09:23:01.267Z,101656.22
2022-08-08T09:25:36.200Z,101661.47
2022-08-08T09:28:30.802Z,101645.31
2022-08-08T09:31:12.640Z,101646.31
2022-08-08T09:34:14.490Z,101651.31
2022-08-08T09:36:36.029Z,101652.66
2022-08-08T09:39:15.508Z,101646.81
2022-08-08T09:42:21.127Z,101648.03
2022-08-08T09:44:49.005Z,101639.28
2022-08-08T09:47:26.966Z,101632.69
2022-08-08T09:50:11.521Z,101643.34
2022-08-08T09:52:55.776Z,101633.13
2022-08-08T09:56:03.547Z,101641.94
2022-08-08T09:58:25.824Z,101641.53
2022-08-08T10:00:57.426Z,101632.56
2022-08-08T10:03:27.924Z,101633.88
2022-08-08T10:05:58.530Z,101634.69
2022-08-08T10:08:26.142Z,101637.00
2022-08-08T10:10:59.439Z,101639.47
2022-08-08T10:13:35.908Z,101640.19
2022-08-08T10:16:05.786Z,101643.22
2022-08-08T10:18:34.829Z,101634.09
2022-08-08T10:21:26.026Z,101632.09
2022-08-08T10:24:02.825Z,101631.66
2022-08-08T10:26:59.430Z,101637.31
2022-08-08T10:29:58.600Z,101635.75
2022-08-08T10:32:48.776Z,101632.53
2022-08-08T10:36:09.405Z,101631.94
2022-08-08T10:38:16.208Z,101630.59
2022-08-08T10:40:45.663Z,101613.88
2022-08-08T10:43:12.789Z,101617.44
2022-08-08T10:45:55.020Z,101622.19
2022-08-08T10:48:57.738Z,101624.00
2022-08-08T10:51:31.679Z,101620.69
2022-08-08T10:54:08.129Z,101631.84
2022-08-08T10:56:43.076Z,101630.03
2022-08-08T10:59:14.353Z,101629.84
2022-08-08T11:01:49.439Z,101640.06
2022-08-08T11:04:38.535Z,101641.75
2022-08-08T11:07:07.059Z,101626.13
2022-08-08T11:09:34.391Z,101635.19
2022-08-08T11:12:12.323Z,101638.25
2022-08-08T11:14:54.423Z,101635.75
2022-08-08T11:17:58.594Z,101629.53
2022-08-08T11:20:14.263Z,101631.78
2022-08-08T11:22:49.899Z,101635.53
2022-08-08T11:25:22.249Z,101637.31
2022-08-08T11:28:13.084Z,101623.78
2022-08-08T11:30:40.969Z,101631.78
2022-08-08T11:33:20.003Z,101635.75
2022-08-08T11:35:47.462Z,101624.59
2022-08-08T11:38:36.754Z,101634.84
2022-08-08T11:41:03.129Z,101631.34
2022-08-08T11:43:38.884Z,101619.47
2022-08-08T11:46:14.228Z,101619.53
2022-08-08T11:48:47.075Z,101617.75
2022-08-08T11:51:30.518Z,101612.63
2022-08-08T11:54:04.928Z,101607.81
2022-08-08T11:56:56.614Z,101605.66
2022-08-08T11:59:58.401Z,101611.22
2022-08-08T12:02:32.343Z,101614.38
2022-08-08T12:05:02.355Z,101609.06
2022-08-08T12:07:29.179Z,101604.13
2022-08-08T12:10:11.061Z,101605.72
2022-08-08T12:12:42.113Z,101607.03
2022-08-08T12:15:25.930Z,101606.84
2022-08-08T12:17:52.665Z,101612.13
2022-08-08T12:20:19.670Z,101605.38
2022-08-08T12:22:49.650Z,101605.78
2022-08-08T12:25:29.725Z,101614.75
2022-08-08T12:28:16.449Z,101618.94
2022-08-08T12:30:47.946Z,101614.97
2022-08-08T12:33:24.125Z,101617.06
2022-08-08T12:36:12.241Z,101615.53
2022-08-08T12:38:55.421Z,101608.75
2022-08-08T12:41:35.088Z,101612.38
2022-08-08T12:44:14.186Z,101618.22
2022-08-08T12:47:00.076Z,101604.47
2022-08-08T12:49:43.217Z,101610.13
2022-08-08T12:52:28.397Z,101617.59
2022-08-08T12:55:13.598Z,101610.47
2022-08-08T12:57:49.885Z,101609.25
2022-08-08T13:00:33.974Z,101617.69
2022-08-08T13:03:07.280Z,101605.63
2022-08-08T13:06:03.455Z,101606.72
2022-08-08T13:08:21.798Z,101614.19
2022-08-08T13:10:56.839Z,101618.25
2022-08-08T13:13:35.825Z,101609.13
2022-08-08T13:16:25.866Z,101618.19
2022-08-08T13:18:57.239Z,101614.25
2022-08-08T13:21:36.384Z,101606.56
2022-08-08T13:24:18.744Z,101616.88
2022-08-08T13:27:01.976Z,101606.03
2022-08-08T13:29:38.005Z,101606.69
2022-08-08T13:32:07.810Z,101610.75
2022-08-08T13:34:39.972Z,101609.53
2022-08-08T13:37:10.930Z,101597.19
2022-08-08T13:39:55.466Z,101610.19
2022-08-08T13:42:24.151Z,101611.34
2022-08-08T13:44:55.805Z,101601.88
2022-08-08T13:47:23.433Z,101610.59
2022-08-08T13:50:37.543Z,101601.88
2022-08-08T13:52:55.264Z,101608.50
2022-08-08T13:55:29.023Z,101612.44
2022-08-08T13:58:07.825Z,101609.59
2022-08-08T14:00:45.141Z,101618.34
2022-08-08T14:03:52.998Z,101617.59
2022-08-08T14:06:32.526Z,101614.41
2022-08-08T14:08:57.897Z,101605.44
2022-08-08T14:11:30.161Z,101611.97
2022-08-08T14:14:02.290Z,101608.91
2022-08-08T14:16:31.885Z,101614.78
2022-08-08T14:19:02.843Z,101615.13
2022-08-08T14:21:54.897Z,101622.06
2022-08-08T14:24:31.652Z,101617.72
2022-08-08T14:26:58.297Z,101607.69
2022-08-08T14:29:30.165Z,101607.81
2022-08-08T14:32:12.840Z,101617.00
2022-08-08T14:34:50.954Z,101607.59
2022-08-08T14:37:18.465Z,101606.56
2022-08-08T14:39:53.757Z,101607.13
2022-08-08T14:42:34.735Z,101608.44
2022-08-08T14:45:10.024Z,101604.03
2022-08-08T14:48:00.818Z,101597.91
2022-08-08T14:50:38.974Z,101609.50
2022-08-08T14:53:09.946Z,101608.44
2022-08-08T14:55:42.096Z,101602.66
2022-08-08T14:58:11.739Z,101597.91
2022-08-08T15:00:43.342Z,101600.88
2022-08-08T15:03:15.111Z,101607.00
2022-08-08T15:05:53.983Z,101605.06
2022-08-08T15:08:34.653Z,101599.31
2022-08-08T15:11:10.483Z,101597.72
2022-08-08T15:14:02.053Z,101594.56
2022-08-08T15:16:28.047Z,101597.00
2022-08-08T15:18:55.204Z,101596.94
2022-08-08T15:21:22.324Z,101597.41
2022-08-08T15:23:54.201Z,101598.47
2022-08-08T15:26:20.998Z,101593.53
2022-08-08T15:28:53.962Z,101592.16
2022-08-08T15:31:49.046Z,101597.88
2022-08-08T15:34:18.739Z,101582.78
2022-08-08T15:37:02.085Z,101590.69
2022-08-08T15:39:31.653Z,101585.41
2022-08-08T15:42:06.914Z,101586.84
2022-08-08T15:44:38.528Z,101588.19
2022-08-08T15:47:07.131Z,101579.53
2022-08-08T15:49:44.450Z,101579.66
2022-08-08T15:52:16.197Z,101581.09
2022-08-08T15:54:51.365Z,101584.59
2022-08-08T15:57:19.007Z,101579.31
2022-08-08T16:00:06.111Z,101576.84
2022-08-08T16:02:43.795Z,101587.41
2022-08-08T16:05:13.901Z,101584.81
2022-08-08T16:07:52.700Z,101578.97
2022-08-08T16:13:09.179Z,101585.56
2022-08-08T16:13:43.402Z,101573.00
2022-08-08T16:16:09.665Z,101580.16
2022-08-08T16:18:44.506Z,101579.16
2022-08-08T16:21:26.965Z,101575.63
2022-08-08T16:23:55.515Z,101582.50
2022-08-08T16:26:33.661Z,101568.47
2022-08-08T16:29:08.960Z,101575.16
2022-08-08T16:31:37.807Z,101567.50
2022-08-08T16:34:04.440Z,101573.00
2022-08-08T16:36:34.067Z,101564.44
2022-08-08T16:39:09.870Z,101570.91
2022-08-08T16:41:51.201Z,101577.63
2022-08-08T16:44:27.594Z,101575.84
2022-08-08T16:47:21.960Z,101579.44
2022-08-08T16:50:13.587Z,101586.22
2022-08-08T16:55:06.464Z,101580.88
2022-08-08T16:55:53.219Z,101588.31
2022-08-08T16:58:20.517Z,101590.31
2022-08-08T17:00:49.162Z,101589.22
2022-08-08T17:03:24.837Z,101600.72
2022-08-08T17:06:35.680Z,101594.75
2022-08-08T17:08:54.049Z,101588.63
2022-08-08T17:11:20.719Z,101592.31
2022-08-08T17:14:00.697Z,101598.69
2022-08-08T17:16:28.604Z,101595.06
2022-08-08T17:18:56.606Z,101597.75
2022-08-08T17:21:26.220Z,101601.63
2022-08-08T17:24:00.400Z,101603.59
2022-08-08T17:26:29.814Z,101605.03
2022-08-08T17:29:04.346Z,101607.13
2022-08-08T17:31:45.655Z,101603.16
2022-08-08T17:34:53.030Z,101607.34
2022-08-08T17:37:06.702Z,101618.88
2022-08-08T17:40:04.062Z,101620.56
2022-08-08T17:42:23.078Z,101612.66
2022-08-08T17:44:52.254Z,101613.72
2022-08-08T17:47:27.272Z,101619.84
2022-08-08T17:50:00.921Z,101625.31
2022-08-08T17:52:35.541Z,101616.50
2022-08-08T17:56:03.523Z,101621.09
2022-08-08T17:57:52.214Z,101620.63
2022-08-08T18:00:25.865Z,101623.41
2022-08-08T18:03:07.533Z,101624.88
2022-08-08T18:05:48.265Z,101622.16
2022-08-08T18:08:24.456Z,101625.94
2022-08-08T18:11:14.448Z,101625.94
2022-08-08T18:13:43.245Z,101634.53
2022-08-08T18:16:11.186Z,101636.63
2022-08-08T18:18:45.188Z,101630.34
2022-08-08T18:21:34.727Z,101634.16
2022-08-08T18:23:59.133Z,101632.88
2022-08-08T18:26:28.119Z,101638.31
2022-08-08T18:28:55.888Z,101650.09
2022-08-08T18:31:24.878Z,101647.56
2022-08-08T18:34:11.865Z,101661.06
2022-08-08T18:36:41.351Z,101661.88
2022-08-08T18:39:27.318Z,101658.72
2022-08-08T18:41:58.248Z,101662.28
2022-08-08T18:44:27.580Z,101672.41
2022-08-08T18:46:57.948Z,101670.06
2022-08-08T18:49:32.716Z,101671.56
2022-08-08T18:52:18.218Z,101672.47
2022-08-08T18:55:00.686Z,101676.78
2022-08-08T18:57:37.008Z,101678.03
2022-08-08T19:00:15.927Z,101678.50
2022-08-08T19:02:55.539Z,101683.53
2022-08-08T19:05:32.054Z,101687.13
2022-08-08T19:08:25.198Z,101678.31
2022-08-08T19:10:58.548Z,101688.34
2022-08-08T19:13:53.780Z,101694.41
2022-08-08T19:16:15.031Z,101692.94
2022-08-08T19:18:54.534Z,101707.84
2022-08-08T19:21:30.943Z,101708.06
2022-08-08T19:24:05.689Z,101716.84
2022-08-08T19:26:34.840Z,101710.81
2022-08-08T19:29:02.335Z,101721.00
2022-08-08T19:31:31.715Z,101722.72
2022-08-08T19:34:36.061Z,101723.47
2022-08-08T19:36:58.574Z,101716.69
2022-08-08T19:39:35.578Z,101715.44
2022-08-08T19:42:07.142Z,101713.38
2022-08-08T19:44:42.997Z,101722.66
2022-08-08T19:47:13.303Z,101720.19
2022-08-08T19:49:43.464Z,101723.81
2022-08-08T19:52:35.569Z,101721.09
2022-08-08T19:55:11.306Z,101727.03
2022-08-08T19:57:42.494Z,101725.31
2022-08-08T20:00:30.213Z,101728.22
2022-08-08T20:03:15.049Z,101731.53
2022-08-08T20:06:13.796Z,101733.34
2022-08-08T20:08:36.273Z,101724.81
2022-08-08T20:11:03.172Z,101728.13
2022-08-08T20:14:31.545Z,101738.06
2022-08-08T20:16:20.138Z,101742.88
2022-08-08T20:18:52.655Z,101741.38
2022-08-08T20:21:24.947Z,101741.63
2022-08-08T20:23:58.201Z,101733.00
2022-08-08T20:26:30.191Z,101737.78
2022-08-08T20:29:00.838Z,101746.56
2022-08-08T20:31:47.263Z,101740.91
2022-08-08T20:34:30.573Z,101742.03
2022-08-08T20:36:59.366Z,101745.09
2022-08-08T20:39:26.922Z,101747.94
2022-08-08T20:42:00.710Z,101743.97
2022-08-08T20:44:27.431Z,101751.09
2022-08-08T20:46:53.965Z,101749.16
2022-08-08T20:49:21.887Z,101746.50
2022-08-08T20:51:48.586Z,101748.22
2022-08-08T20:54:27.410Z,101742.78
2022-08-08T20:57:04.316Z,101744.19
2022-08-08T20:59:42.021Z,101737.69
2022-08-08T21:02:12.481Z,101737.22
2022-08-08T21:04:40.508Z,101742.78
2022-08-08T21:07:13.924Z,101747.28
2022-08-08T21:10:01.532Z,101742.06
2022-08-08T21:12:32.441Z,101740.84
2022-08-08T21:15:07.027Z,101747.63
2022-08-08T21:17:35.309Z,101740.31
2022-08-08T21:20:04.060Z,101737.59
2022-08-08T21:22:30.860Z,101732.81
2022-08-08T21:24:58.344Z,101741.06
2022-08-08T21:27:38.980Z,101748.47
2022-08-08T21:30:18.545Z,101742.44
2022-08-08T21:32:51.739Z,101744.63
2022-08-08T21:36:14.923Z,101748.84
2022-08-08T21:38:16.343Z,101743.47
2022-08-08T21:40:56.314Z,101746.56
2022-08-08T21:43:34.342Z,101752.41
2022-08-08T21:48:03.820Z,101756.16
2022-08-08T21:48:55.593Z,101754.50
2022-08-08T21:54:18.118Z,101752.16
2022-08-08T21:54:27.209Z,101752.69
2022-08-08T21:57:01.232Z,101756.13
2022-08-08T22:00:02.836Z,101756.84
2022-08-08T22:02:19.615Z,101758.25
2022-08-08T22:04:51.927Z,101761.66
2022-08-08T22:07:19.149Z,101757.13
2022-08-08T22:09:45.876Z,101755.03
2022-08-08T22:12:14.942Z,101754.50
2022-08-08T22:14:44.308Z,101758.66
2022-08-08T22:17:16.566Z,101770.78
2022-08-08T22:20:12.962Z,101765.88
2022-08-08T22:22:34.555Z,101770.47
2022-08-08T22:25:17.798Z,101768.91
2022-08-08T22:28:04.352Z,101778.13
2022-08-08T22:30:40.623Z,101773.69
2022-08-08T22:33:22.123Z,101778.13
2022-08-08T22:36:04.117Z,101775.94
2022-08-08T22:38:48.868Z,101777.94
2022-08-08T22:41:21.135Z,101774.09
2022-08-08T22:44:02.318Z,101778.53
2022-08-08T22:46:34.505Z,101778.72
2022-08-08T22:49:06.102Z,101776.84
2022-08-08T22:51:34.782Z,101781.84
2022-08-08T22:54:32.898Z,101776.41
2022-08-08T22:56:56.151Z,101786.47
2022-08-08T22:59:22.827Z,101786.66
2022-08-08T23:02:04.017Z,101779.19
2022-08-08T23:04:32.338Z,101778.19
2022-08-08T23:07:02.783Z,101788.88
2022-08-08T23:09:31.085Z,101786.34
2022-08-08T23:12:27.966Z,101781.03
2022-08-08T23:14:59.804Z,101785.59
2022-08-08T23:17:29.988Z,101788.88
2022-08-08T23:19:56.800Z,101791.25
2022-08-08T23:22:23.685Z,101798.00
2022-08-08T23:24:50.670Z,101789.00
2022-08-08T23:27:38.128Z,101794.06
2022-08-08T23:30:06.036Z,101797.69
2022-08-08T23:32:36.118Z,101799.31
2022-08-08T23:35:12.671Z,101801.91
2022-08-08T23:38:02.042Z,101799.53
2022-08-08T23:40:30.979Z,101797.84
2022-08-08T23:42:57.946Z,101794.78
2022-08-08T23:49:00.210Z,101797.97
2022-08-08T23:49:05.194Z,101809.09
2022-08-08T23:50:58.873Z,101807.69
2022-08-08T23:53:55.646Z,101807.41
2022-08-08T23:56:13.639Z,101802.00
2022-08-08T23:58:50.516Z,101807.72
